Time;durP1;ratioP1;P1;durP2;ratioP2;P2;SDS_P1;SDS_P2;PMS_P1;PMS_P2;Temp;Humidity;BMP_temperature;BMP_pressure;BME280_temperature;BME280_humidity;BME280_pressure;Samples;Min_cycle;Max_cycle;Signal;HPM_P1;HPM_P2
2022/05/27 00:01:55;;;;;;;10.18;4.15;;;13.30;99.90;;;;;;4976227;28;20054;-83
2022/05/27 00:04:21;;;;;;;8.63;3.65;;;13.30;99.90;;;;;;4992409;28;20048;-81
2022/05/27 00:06:46;;;;;;;11.30;4.15;;;13.40;99.90;;;;;;4992062;28;20054;-82
2022/05/27 00:09:12;;;;;;;9.55;3.70;;;13.40;99.90;;;;;;4992171;28;20050;-82
2022/05/27 00:11:38;;;;;;;12.07;4.18;;;13.40;99.90;;;;;;4992840;28;20046;-82
2022/05/27 00:14:03;;;;;;;11.75;4.35;;;13.30;99.90;;;;;;4975815;28;20038;-82
2022/05/27 00:16:29;;;;;;;11.55;4.40;;;13.40;99.90;;;;;;4976431;28;20046;-82
2022/05/27 00:18:55;;;;;;;10.27;4.38;;;13.40;99.90;;;;;;4992574;28;20054;-82
2022/05/27 00:21:21;;;;;;;10.95;4.50;;;13.40;99.90;;;;;;4992571;28;20042;-81
2022/05/27 00:23:47;;;;;;;9.70;4.50;;;13.40;99.90;;;;;;4992141;28;20047;-81
2022/05/27 00:26:13;;;;;;;10.65;4.50;;;13.50;99.90;;;;;;4992096;28;20069;-82
2022/05/27 00:28:41;;;;;;;16.67;4.97;;;13.40;99.90;;;;;;4992342;28;20094;-81
2022/05/27 00:31:07;;;;;;;10.27;4.10;;;13.40;99.90;;;;;;4992622;28;20046;-81
2022/05/27 00:33:34;;;;;;;20.27;5.43;;;13.40;99.90;;;;;;4991523;28;20053;-81
2022/05/27 00:36:00;;;;;;;14.30;5.32;;;13.40;99.90;;;;;;4991480;28;20050;-82
2022/05/27 00:38:25;;;;;;;16.45;5.03;;;13.50;99.90;;;;;;4975497;28;20042;-82
2022/05/27 00:40:52;;;;;;;14.43;5.85;;;13.50;99.90;;;;;;4991420;28;20043;-81
2022/05/27 00:43:21;;;;;;;12.95;4.55;;;13.50;99.90;;;;;;4991063;28;20069;-81
2022/05/27 00:45:57;;;;;;;15.27;4.30;;;13.40;99.90;;;;;;4990637;28;20046;-82
2022/05/27 00:48:24;;;;;;;16.55;3.70;;;13.40;99.90;;;;;;4991442;28;20078;-81
2022/05/27 00:50:51;;;;;;;18.50;4.65;;;13.60;99.90;;;;;;4991366;28;20046;-81
2022/05/27 00:53:24;;;;;;;15.38;4.47;;;13.40;99.90;;;;;;4991040;28;20042;-82
2022/05/27 00:55:55;;;;;;;14.45;4.32;;;13.30;99.90;;;;;;4990986;28;20099;-81
2022/05/27 00:58:28;;;;;;;10.65;3.50;;;13.20;99.90;;;;;;4991005;28;20046;-81
2022/05/27 01:00:55;;;;;;;20.88;4.03;;;13.50;99.90;;;;;;4977411;28;20046;-82
2022/05/27 01:03:22;;;;;;;12.48;3.50;;;13.10;99.90;;;;;;4994615;28;20066;-81
2022/05/27 01:05:48;;;;;;;11.35;3.72;;;13.10;99.90;;;;;;4978559;28;20077;-81
2022/05/27 01:08:16;;;;;;;17.00;4.07;;;12.90;99.90;;;;;;4975035;28;20073;-81
2022/05/27 01:11:06;;;;;;;18.30;3.47;;;12.90;99.90;;;;;;4992234;28;20051;-81
2022/05/27 01:13:46;;;;;;;15.25;3.72;;;12.90;99.90;;;;;;4991431;28;20050;-81
2022/05/27 01:16:41;;;;;;;17.35;4.00;;;12.80;99.90;;;;;;4991811;28;20051;-81
2022/05/27 01:22:49;;;;;;;16.10;4.57;;;12.70;99.90;;;;;;4991185;28;20137;-81
2022/05/27 01:25:56;;;;;;;18.70;4.70;;;12.70;99.90;;;;;;4978537;28;20061;-81
2022/05/27 01:28:43;;;;;;;16.27;4.10;;;12.60;99.90;;;;;;4991752;28;20051;-82
2022/05/27 01:31:24;;;;;;;14.88;4.13;;;12.50;99.90;;;;;;4975535;28;20494;-82
2022/05/27 01:34:16;;;;;;;15.88;4.30;;;12.40;99.90;;;;;;4991257;28;20129;-81
2022/05/27 01:36:48;;;;;;;15.60;4.25;;;12.50;99.90;;;;;;4975786;28;20050;-82
2022/05/27 01:39:27;;;;;;;18.10;4.47;;;12.30;99.90;;;;;;4992259;28;20062;-82
2022/05/27 01:42:21;;;;;;;18.77;4.53;;;12.30;99.90;;;;;;4991196;28;20050;-81
2022/05/27 01:44:58;;;;;;;15.88;5.05;;;12.30;99.90;;;;;;4991570;28;20074;-81
2022/05/27 01:47:38;;;;;;;16.85;4.70;;;12.20;99.90;;;;;;4991763;28;20084;-82
2022/05/27 01:50:20;;;;;;;11.95;4.43;;;12.20;99.90;;;;;;4975631;28;20051;-82
2022/05/27 01:52:59;;;;;;;17.60;3.97;;;12.20;99.90;;;;;;4974823;28;20078;-81
2022/05/27 01:55:34;;;;;;;15.75;4.82;;;12.30;99.90;;;;;;4990848;28;20053;-81
2022/05/27 01:58:25;;;;;;;15.07;4.27;;;12.10;99.90;;;;;;4975121;28;20054;-82
2022/05/27 02:00:51;;;;;;;15.77;4.50;;;12.10;99.90;;;;;;4991378;28;20054;-82
2022/05/27 02:03:30;;;;;;;20.65;5.40;;;12.00;99.90;;;;;;4991153;28;20051;-82
2022/05/27 02:06:04;;;;;;;15.82;5.20;;;12.00;99.90;;;;;;4991267;28;20050;-83
2022/05/27 02:08:44;;;;;;;15.70;4.50;;;12.10;99.90;;;;;;4974944;28;20423;-81
2022/05/27 02:11:15;;;;;;;20.17;5.05;;;12.10;99.90;;;;;;4989577;28;20051;-82
2022/05/27 02:13:54;;;;;;;20.98;4.90;;;12.00;99.90;;;;;;4990863;28;20050;-82
2022/05/27 02:16:46;;;;;;;17.40;4.88;;;12.00;99.90;;;;;;4990554;28;20046;-82
2022/05/27 02:19:32;;;;;;;15.75;5.53;;;12.00;99.90;;;;;;4975180;28;20138;-82
2022/05/27 02:22:06;;;;;;;11.00;3.95;;;12.00;99.90;;;;;;4991029;28;20055;-82
2022/05/27 02:24:41;;;;;;;22.27;5.40;;;12.00;99.90;;;;;;4991694;28;20071;-82
2022/05/27 02:27:20;;;;;;;18.00;4.50;;;12.00;99.90;;;;;;4974975;28;20050;-82
2022/05/27 02:29:51;;;;;;;14.80;4.22;;;12.00;99.90;;;;;;4990953;28;20047;-82
2022/05/27 02:32:29;;;;;;;15.23;4.40;;;12.10;99.90;;;;;;4991317;28;20070;-82
2022/05/27 02:35:09;;;;;;;15.70;4.78;;;12.10;99.90;;;;;;4991315;28;20047;-82
2022/05/27 02:37:45;;;;;;;17.48;4.35;;;12.40;99.90;;;;;;4990992;28;20106;-81
2022/05/27 02:40:15;;;;;;;19.13;4.53;;;12.10;99.90;;;;;;4974122;28;20055;-82
2022/05/27 02:43:02;;;;;;;18.73;4.70;;;12.10;99.90;;;;;;4990802;28;20490;-82
2022/05/27 02:45:46;;;;;;;13.80;4.00;;;12.40;99.90;;;;;;4989909;28;20043;-83
2022/05/27 02:48:16;;;;;;;12.93;3.70;;;12.10;99.90;;;;;;4973724;28;20050;-82
2022/05/27 02:51:20;;;;;;;16.23;3.88;;;12.20;99.90;;;;;;4990116;28;20042;-82
2022/05/27 02:53:59;;;;;;;14.02;3.75;;;12.20;99.90;;;;;;4974252;28;20042;-82
2022/05/27 02:56:39;;;;;;;12.35;3.78;;;12.10;99.90;;;;;;4974283;28;20059;-82
2022/05/27 02:59:09;;;;;;;14.93;3.75;;;12.10;99.90;;;;;;4974174;28;20502;-82
2022/05/27 03:01:35;;;;;;;16.67;3.72;;;12.20;99.90;;;;;;4990431;28;20151;-82
2022/05/27 03:04:00;;;;;;;16.58;3.35;;;12.10;99.90;;;;;;4990079;28;20045;-82
2022/05/27 03:06:26;;;;;;;17.55;3.15;;;12.10;99.90;;;;;;4990670;28;20055;-82
2022/05/27 03:09:16;;;;;;;12.32;3.45;;;12.00;99.90;;;;;;4993487;28;20050;-82
2022/05/27 03:12:06;;;;;;;15.68;3.65;;;12.00;99.90;;;;;;4993875;28;20053;-81
2022/05/27 03:14:53;;;;;;;13.60;2.92;;;12.00;99.90;;;;;;4993100;28;20052;-82
2022/05/27 03:17:42;;;;;;;15.10;3.10;;;12.00;99.90;;;;;;4993563;28;20046;-82
2022/05/27 03:20:39;;;;;;;18.35;3.58;;;12.00;99.90;;;;;;4992914;28;20069;-82
2022/05/27 03:23:14;;;;;;;13.35;3.47;;;12.00;99.90;;;;;;4993554;28;20081;-82
2022/05/27 03:25:50;;;;;;;14.77;3.80;;;11.90;99.90;;;;;;4992108;28;20050;-82
2022/05/27 03:28:37;;;;;;;16.15;3.83;;;11.90;99.90;;;;;;4992251;28;20046;-82
2022/05/27 03:31:29;;;;;;;14.95;3.30;;;11.90;99.90;;;;;;4976338;28;20089;-82
2022/05/27 03:34:09;;;;;;;10.90;3.65;;;11.90;99.90;;;;;;4991687;28;20078;-82
2022/05/27 03:36:54;;;;;;;14.40;2.90;;;11.80;99.90;;;;;;4976761;28;20069;-82
2022/05/27 03:39:27;;;;;;;16.13;3.45;;;11.90;99.90;;;;;;4977296;28;20038;-82
2022/05/27 03:42:00;;;;;;;12.43;2.90;;;11.80;99.90;;;;;;4976100;28;20101;-82
2022/05/27 03:44:28;;;;;;;13.88;2.80;;;11.80;99.90;;;;;;4992271;28;20057;-82
2022/05/27 03:46:56;;;;;;;13.27;3.28;;;11.80;99.90;;;;;;4992619;28;20135;-82
2022/05/27 03:49:22;;;;;;;14.63;3.55;;;11.80;99.90;;;;;;4976081;28;20046;-81
2022/05/27 03:51:59;;;;;;;14.13;3.00;;;11.80;99.90;;;;;;4991705;28;20089;-81
2022/05/27 03:54:25;;;;;;;12.27;2.75;;;11.90;99.90;;;;;;4993164;28;20046;-82
2022/05/27 03:56:51;;;;;;;11.25;2.78;;;11.90;99.90;;;;;;4992328;28;20105;-82
2022/05/27 03:59:22;;;;;;;15.25;2.90;;;11.90;99.90;;;;;;4991580;28;20046;-82
2022/05/27 04:01:51;;;;;;;15.15;2.65;;;12.00;99.90;;;;;;4991925;28;20054;-82
2022/05/27 04:04:21;;;;;;;11.77;2.80;;;12.60;99.90;;;;;;4975733;28;20073;-81
2022/05/27 04:06:47;;;;;;;11.20;2.35;;;12.60;99.90;;;;;;4991090;28;20572;-82
2022/05/27 04:09:14;;;;;;;11.80;2.88;;;11.90;99.90;;;;;;4990589;28;20053;-81
2022/05/27 04:11:40;;;;;;;11.95;3.00;;;11.90;99.90;;;;;;4975454;28;20046;-82
2022/05/27 04:14:07;;;;;;;9.60;2.38;;;12.20;99.90;;;;;;4991863;28;20049;-82
2022/05/27 04:16:33;;;;;;;12.70;2.40;;;11.90;99.90;;;;;;4992118;28;20045;-81
2022/05/27 04:18:59;;;;;;;12.57;3.03;;;12.00;99.90;;;;;;4991874;28;20054;-82
2022/05/27 04:21:25;;;;;;;10.63;2.75;;;11.90;99.90;;;;;;4991181;28;20049;-82
2022/05/27 04:23:51;;;;;;;11.30;2.50;;;11.90;99.90;;;;;;4975310;28;20482;-81
2022/05/27 04:26:17;;;;;;;11.68;2.83;;;12.10;99.90;;;;;;4975329;28;20090;-82
2022/05/27 04:28:48;;;;;;;13.40;2.30;;;11.90;99.90;;;;;;4991173;28;20053;-81
2022/05/27 04:31:14;;;;;;;11.02;2.78;;;11.90;99.90;;;;;;4975441;28;20082;-82
2022/05/27 04:33:40;;;;;;;10.60;2.50;;;11.80;99.90;;;;;;4990909;28;20038;-82
2022/05/27 04:36:07;;;;;;;7.55;2.00;;;11.80;99.90;;;;;;4994995;28;20397;-82
2022/05/27 04:38:33;;;;;;;12.10;2.35;;;11.70;99.90;;;;;;4995204;28;20054;-82
2022/05/27 04:40:58;;;;;;;8.52;2.40;;;11.90;99.90;;;;;;4994624;28;20054;-82
2022/05/27 04:43:24;;;;;;;9.25;2.33;;;11.70;99.90;;;;;;4994319;28;20046;-82
2022/05/27 04:45:50;;;;;;;12.80;2.65;;;11.60;99.90;;;;;;4979130;28;20077;-82
2022/05/27 04:48:19;;;;;;;11.73;2.70;;;11.60;99.90;;;;;;4977717;28;20046;-82
2022/05/27 04:50:45;;;;;;;9.27;2.70;;;11.70;99.90;;;;;;5011516;28;20066;-82
2022/05/27 04:53:11;;;;;;;9.20;2.47;;;11.60;99.90;;;;;;4994364;28;20046;-81
2022/05/27 04:55:38;;;;;;;7.80;2.20;;;11.60;99.90;;;;;;4994550;28;20078;-82
2022/05/27 04:58:04;;;;;;;9.48;2.30;;;11.60;99.90;;;;;;4993352;28;20046;-82
2022/05/27 05:00:39;;;;;;;11.45;3.05;;;11.60;99.90;;;;;;4977504;28;20410;-82
2022/05/27 05:03:05;;;;;;;12.75;2.28;;;11.70;99.90;;;;;;4977612;28;20077;-82
2022/05/27 05:05:33;;;;;;;9.30;2.55;;;11.70;99.90;;;;;;4977834;28;20046;-81
2022/05/27 05:08:03;;;;;;;11.95;2.85;;;11.70;99.90;;;;;;4977705;28;20117;-82
2022/05/27 05:10:29;;;;;;;9.50;2.80;;;11.80;99.90;;;;;;4977480;28;20074;-82
2022/05/27 05:12:57;;;;;;;10.77;2.42;;;12.40;99.90;;;;;;4993266;28;20085;-82
2022/05/27 05:15:24;;;;;;;10.88;2.88;;;11.90;99.90;;;;;;4977991;28;20042;-82
2022/05/27 05:17:50;;;;;;;13.52;2.55;;;12.10;99.90;;;;;;4993929;28;20050;-82
2022/05/27 05:20:19;;;;;;;12.32;3.22;;;12.00;99.90;;;;;;4993318;28;20038;-82
2022/05/27 05:22:45;;;;;;;10.05;2.30;;;12.10;99.90;;;;;;4977319;28;20133;-83
2022/05/27 05:25:11;;;;;;;14.55;3.20;;;12.20;99.90;;;;;;4992912;28;20041;-82
2022/05/27 05:27:38;;;;;;;11.80;2.67;;;12.30;99.90;;;;;;4976372;28;20080;-82
2022/05/27 05:30:05;;;;;;;16.42;2.58;;;12.40;99.90;;;;;;4976982;28;20066;-82
2022/05/27 05:32:32;;;;;;;10.68;2.40;;;12.40;99.90;;;;;;4993101;28;20087;-82
2022/05/27 05:34:59;;;;;;;13.40;2.45;;;12.70;99.90;;;;;;4976555;28;20022;-82
2022/05/27 05:37:26;;;;;;;8.85;2.25;;;12.40;99.90;;;;;;4991695;28;20061;-82
2022/05/27 05:39:51;;;;;;;13.50;2.45;;;12.50;99.90;;;;;;4991125;28;20074;-82
2022/05/27 05:42:17;;;;;;;11.43;2.53;;;12.50;99.90;;;;;;4991951;28;20053;-82
2022/05/27 05:44:48;;;;;;;10.77;2.60;;;12.80;99.90;;;;;;4991288;28;20046;-82
2022/05/27 05:47:14;;;;;;;9.00;2.20;;;12.70;99.90;;;;;;4990078;28;20045;-82
2022/05/27 05:49:40;;;;;;;14.68;2.63;;;12.40;99.90;;;;;;4989803;28;20046;-82
2022/05/27 05:52:07;;;;;;;10.40;2.28;;;12.60;99.90;;;;;;4991408;28;20394;-82
2022/05/27 05:54:33;;;;;;;11.02;3.10;;;12.60;99.90;;;;;;4990263;28;20042;-82
2022/05/27 05:57:00;;;;;;;9.90;2.15;;;12.60;99.90;;;;;;4989819;28;20050;-82
2022/05/27 05:59:31;;;;;;;10.07;2.42;;;12.80;99.90;;;;;;4988601;28;20042;-82
2022/05/27 06:01:57;;;;;;;12.00;2.47;;;12.70;99.90;;;;;;4973598;28;20132;-82
2022/05/27 06:04:23;;;;;;;16.90;2.83;;;12.80;99.90;;;;;;4990359;28;20061;-82
2022/05/27 06:06:50;;;;;;;11.55;2.47;;;12.80;99.90;;;;;;4970842;28;20067;-82
2022/05/27 06:09:15;;;;;;;8.52;2.10;;;12.90;99.90;;;;;;4971936;28;20042;-82
2022/05/27 06:11:41;;;;;;;12.65;2.60;;;13.20;99.90;;;;;;4987267;28;20070;-82
2022/05/27 06:14:12;;;;;;;9.50;2.22;;;13.10;99.90;;;;;;4985871;28;20066;-82
2022/05/27 06:16:38;;;;;;;9.48;2.35;;;13.00;99.90;;;;;;4985825;28;20047;-82
2022/05/27 06:19:04;;;;;;;10.85;3.03;;;13.20;99.90;;;;;;4970198;28;20034;-83
2022/05/27 06:21:29;;;;;;;8.38;2.00;;;13.30;99.90;;;;;;4985344;28;20043;-82
2022/05/27 06:23:55;;;;;;;11.20;2.63;;;13.30;99.90;;;;;;4984520;28;20537;-83
2022/05/27 06:26:21;;;;;;;10.80;2.00;;;13.50;99.90;;;;;;4969903;28;20074;-82
2022/05/27 06:34:23;;;;;;;14.27;2.60;;;13.50;99.90;;;;;;4984355;28;20047;-83
2022/05/27 06:37:01;;;;;;;11.25;2.15;;;13.50;99.90;;;;;;4968081;28;20470;-83
2022/05/27 06:39:28;;;;;;;11.20;2.58;;;13.50;99.90;;;;;;4968142;28;20051;-83
2022/05/27 06:41:54;;;;;;;11.48;2.28;;;13.60;99.90;;;;;;4983647;28;20134;-84
2022/05/27 06:44:22;;;;;;;9.65;2.03;;;13.70;99.90;;;;;;4982157;28;20094;-83
2022/05/27 06:46:51;;;;;;;9.85;2.38;;;14.20;99.90;;;;;;4967028;28;20498;-82
2022/05/27 06:49:21;;;;;;;8.23;1.80;;;13.80;99.90;;;;;;4982082;28;20090;-83
2022/05/27 06:51:47;;;;;;;14.38;2.40;;;14.00;99.90;;;;;;4982323;28;20545;-82
2022/05/27 06:54:15;;;;;;;14.13;2.45;;;14.00;99.90;;;;;;4981498;28;20387;-83
2022/05/27 06:56:42;;;;;;;9.88;1.98;;;14.00;99.90;;;;;;4965514;28;20042;-82
2022/05/27 06:59:08;;;;;;;9.95;2.60;;;14.10;99.90;;;;;;4978841;28;20098;-83
2022/05/27 07:01:35;;;;;;;8.55;1.90;;;14.20;99.90;;;;;;4979274;28;20049;-84
2022/05/27 07:04:02;;;;;;;10.73;2.22;;;14.10;99.90;;;;;;4964701;28;20119;-83
2022/05/27 07:06:32;;;;;;;12.45;2.50;;;14.00;99.90;;;;;;4964243;28;20055;-83
2022/05/27 07:09:03;;;;;;;11.80;2.03;;;14.30;99.90;;;;;;4984575;28;20536;-82
2022/05/27 07:11:29;;;;;;;8.82;2.42;;;14.30;99.90;;;;;;4983402;28;20520;-83
2022/05/27 07:13:58;;;;;;;9.30;2.03;;;14.40;99.90;;;;;;4983416;28;20043;-83
2022/05/27 07:16:24;;;;;;;11.25;2.88;;;14.50;99.90;;;;;;4984507;28;20042;-83
2022/05/27 07:18:49;;;;;;;9.48;2.00;;;14.30;99.90;;;;;;4985711;28;20046;-84
2022/05/27 07:21:15;;;;;;;11.40;2.00;;;13.90;99.90;;;;;;4986460;28;20085;-82
2022/05/27 07:23:41;;;;;;;8.23;2.00;;;13.80;99.90;;;;;;4986344;28;20053;-83
2022/05/27 07:26:06;;;;;;;13.73;2.15;;;13.90;99.90;;;;;;4984358;28;20050;-83
2022/05/27 07:28:32;;;;;;;7.47;2.00;;;14.10;99.90;;;;;;4986437;28;20169;-82
2022/05/27 07:31:01;;;;;;;10.95;2.20;;;14.30;99.90;;;;;;4985525;28;20107;-83
2022/05/27 07:33:27;;;;;;;7.57;1.58;;;14.40;99.90;;;;;;4985761;28;20478;-81
2022/05/27 07:35:53;;;;;;;10.18;2.00;;;14.50;99.90;;;;;;4987275;28;20490;-82
2022/05/27 07:38:18;;;;;;;8.18;1.80;;;14.40;99.90;;;;;;4971256;28;20106;-83
2022/05/27 07:40:44;;;;;;;6.10;2.05;;;14.90;99.90;;;;;;4987018;28;20042;-82
2022/05/27 07:43:13;;;;;;;9.07;1.95;;;14.40;99.90;;;;;;4971717;28;20154;-82
2022/05/27 07:45:41;;;;;;;10.30;2.00;;;14.40;99.90;;;;;;4971261;28;20633;-83
2022/05/27 07:48:07;;;;;;;7.45;1.70;;;14.30;99.90;;;;;;4971184;28;20050;-82
2022/05/27 07:50:33;;;;;;;9.00;2.05;;;14.50;99.90;;;;;;4970158;28;20038;-83
2022/05/27 07:52:58;;;;;;;11.70;2.63;;;14.60;99.90;;;;;;4986595;28;20054;-82
2022/05/27 07:55:24;;;;;;;10.20;2.00;;;14.80;99.90;;;;;;4969884;28;20053;-82
2022/05/27 07:57:50;;;;;;;13.00;2.53;;;15.00;99.90;;;;;;4970959;28;20050;-82
2022/05/27 08:00:20;;;;;;;12.23;2.20;;;15.10;99.90;;;;;;4985721;28;20050;-83
2022/05/27 08:02:46;;;;;;;8.70;2.00;;;15.10;99.90;;;;;;4986109;28;20042;-82
2022/05/27 08:05:15;;;;;;;12.40;2.25;;;15.10;99.90;;;;;;4986918;28;20042;-82
2022/05/27 08:07:42;;;;;;;12.38;2.97;;;15.00;99.90;;;;;;4970101;28;20145;-83
2022/05/27 08:10:08;;;;;;;8.35;1.83;;;15.00;99.90;;;;;;4985961;28;20057;-82
2022/05/27 08:12:34;;;;;;;10.68;2.10;;;15.10;99.90;;;;;;4985566;28;20045;-82
2022/05/27 08:15:00;;;;;;;14.48;2.60;;;15.20;99.90;;;;;;4985133;28;20129;-83
2022/05/27 08:17:26;;;;;;;6.47;2.05;;;15.30;99.90;;;;;;4986581;28;20046;-82
2022/05/27 08:19:52;;;;;;;11.23;2.38;;;15.30;99.90;;;;;;4969668;28;20374;-82
2022/05/27 08:22:18;;;;;;;9.82;2.30;;;15.40;99.90;;;;;;4984869;28;20054;-82
2022/05/27 08:24:44;;;;;;;12.77;2.25;;;15.60;99.90;;;;;;4986256;28;20041;-82
2022/05/27 08:27:10;;;;;;;11.25;2.10;;;15.60;99.90;;;;;;4985381;28;20038;-83
2022/05/27 08:29:36;;;;;;;8.52;1.88;;;15.70;99.90;;;;;;4969087;28;20042;-82
2022/05/27 08:32:04;;;;;;;9.50;2.25;;;15.70;99.90;;;;;;4984449;28;20050;-83
2022/05/27 08:40:13;;;;;;;7.95;1.67;;;15.10;99.90;;;;;;4983880;28;19921;-82
2022/05/27 08:43:01;;;;;;;8.10;1.63;;;15.40;99.90;;;;;;4969601;28;20058;-82
2022/05/27 08:45:32;;;;;;;8.98;2.08;;;15.50;99.90;;;;;;4984178;28;20050;-83
2022/05/27 08:48:03;;;;;;;6.53;1.70;;;15.80;99.90;;;;;;4985760;28;20489;-83
2022/05/27 08:50:44;;;;;;;12.32;2.17;;;15.90;99.90;;;;;;4983169;28;20049;-83
2022/05/27 08:53:17;;;;;;;8.68;1.90;;;16.00;99.90;;;;;;4966544;28;20069;-83
2022/05/27 09:01:39;;;;;;;13.02;2.35;;;15.80;99.90;;;;;;4983077;28;20050;-82
2022/05/27 09:04:14;;;;;;;8.30;1.70;;;16.00;99.90;;;;;;4983138;28;20046;-83
2022/05/27 09:06:43;;;;;;;10.25;1.90;;;16.20;99.90;;;;;;4984321;28;20054;-83
2022/05/27 09:09:35;;;;;;;6.65;1.65;;;16.00;99.90;;;;;;4984934;28;20061;-82
2022/05/27 09:12:28;;;;;;;14.60;2.88;;;16.20;99.90;;;;;;4983030;28;20104;-83
2022/05/27 09:15:21;;;;;;;8.65;1.90;;;16.10;99.90;;;;;;4986552;28;20060;-83
2022/05/27 09:18:04;;;;;;;7.65;2.00;;;16.20;99.90;;;;;;4872046;29;20184;-84
2022/05/27 09:20:50;;;;;;;9.88;1.88;;;16.60;99.90;;;;;;4889283;29;20061;-83
2022/05/27 09:23:39;;;;;;;9.00;2.15;;;16.30;99.90;;;;;;4850839;29;20518;-83
2022/05/27 09:26:21;;;;;;;9.45;2.03;;;16.10;99.90;;;;;;4799614;29;20154;-83
2022/05/27 09:29:01;;;;;;;10.27;2.10;;;16.20;99.90;;;;;;4799421;29;20530;-83
2022/05/27 09:31:47;;;;;;;8.35;1.73;;;16.50;99.90;;;;;;4799031;29;20583;-84
2022/05/27 09:34:13;;;;;;;7.68;1.67;;;16.60;99.90;;;;;;4799552;29;20205;-82
2022/05/27 09:36:44;;;;;;;7.75;1.67;;;16.70;99.90;;;;;;4784006;29;20082;-82
2022/05/27 09:39:13;;;;;;;7.18;1.60;;;16.30;99.90;;;;;;4814766;29;20121;-83
2022/05/27 09:41:57;;;;;;;13.10;2.80;;;16.10;99.90;;;;;;4799699;29;20057;-82
2022/05/27 09:44:46;;;;;;;10.63;1.98;;;16.20;99.90;;;;;;4799361;29;20063;-83
2022/05/27 09:47:11;;;;;;;6.30;2.10;;;16.40;99.90;;;;;;4797143;29;20083;-82
2022/05/27 09:49:38;;;;;;;7.90;1.80;;;16.80;99.90;;;;;;4811807;29;20396;-83
2022/05/27 09:52:05;;;;;;;8.20;2.20;;;16.70;99.90;;;;;;4812726;29;20047;-82
2022/05/27 09:54:50;;;;;;;7.70;2.08;;;16.70;99.90;;;;;;4825523;29;20058;-83
2022/05/27 09:57:23;;;;;;;8.50;1.83;;;16.70;99.90;;;;;;4833372;29;20066;-82
2022/05/27 09:59:56;;;;;;;9.20;1.85;;;16.80;99.90;;;;;;4847193;29;20560;-83
2022/05/27 10:02:36;;;;;;;8.15;2.00;;;16.80;99.90;;;;;;4907919;28;20061;-83
2022/05/27 10:05:15;;;;;;;10.60;1.75;;;16.90;99.90;;;;;;4986316;28;20118;-83
2022/05/27 10:07:43;;;;;;;10.05;2.60;;;16.80;99.90;;;;;;4969867;28;20054;-83
2022/05/27 10:10:31;;;;;;;7.65;1.77;;;16.60;99.90;;;;;;4984891;28;20047;-82
2022/05/27 10:13:17;;;;;;;8.13;2.17;;;16.70;99.90;;;;;;4986842;28;20041;-83
2022/05/27 10:15:49;;;;;;;;;;;17.10;99.90;;;;;;4987125;28;20077;-83
2022/05/27 10:18:21;;;;;;;8.10;1.83;;;16.80;99.90;;;;;;4984645;28;19918;-83
2022/05/27 10:20:57;;;;;;;10.55;2.38;;;16.70;99.90;;;;;;4983704;28;20046;-82
2022/05/27 10:23:37;;;;;;;11.77;1.92;;;16.70;99.90;;;;;;4968010;28;20046;-83
2022/05/27 10:26:29;;;;;;;9.93;2.10;;;16.90;99.90;;;;;;4984011;28;20041;-83
2022/05/27 10:29:10;;;;;;;8.60;1.70;;;16.70;99.90;;;;;;4968285;28;20046;-83
2022/05/27 10:31:36;;;;;;;5.78;1.95;;;16.70;99.90;;;;;;4954110;28;20057;-83
2022/05/27 10:34:02;;;;;;;11.57;1.83;;;16.70;99.90;;;;;;4967521;28;20077;-82
2022/05/27 10:36:54;;;;;;;9.55;1.88;;;16.30;99.90;;;;;;4986606;28;20089;-82
2022/05/27 10:39:23;;;;;;;9.45;2.40;;;16.60;99.90;;;;;;4968680;28;20054;-83
2022/05/27 10:42:24;;;;;;;12.25;2.28;;;17.10;99.90;;;;;;4985213;28;20054;-82
2022/05/27 10:45:06;;;;;;;9.50;1.70;;;16.80;99.90;;;;;;4983386;28;20393;-83
2022/05/27 10:47:57;;;;;;;10.65;2.42;;;16.80;99.90;;;;;;4984627;28;20073;-83
2022/05/27 10:50:26;;;;;;;8.15;2.30;;;17.10;99.90;;;;;;4984080;28;20081;-82
2022/05/27 10:52:57;;;;;;;9.60;1.77;;;17.40;99.90;;;;;;4983071;28;20367;-82
2022/05/27 10:55:44;;;;;;;10.70;1.88;;;17.70;99.90;;;;;;4966793;28;20482;-83
2022/05/27 11:04:23;;;;;;;9.55;1.75;;;18.10;99.90;;;;;;4954919;28;20093;-83
2022/05/27 11:07:00;;;;;;;9.88;2.28;;;18.00;99.90;;;;;;4979713;28;20054;-83
2022/05/27 11:09:29;;;;;;;6.85;1.98;;;18.30;99.90;;;;;;4963616;28;20497;-84
2022/05/27 11:12:16;;;;;;;9.48;1.88;;;18.00;99.90;;;;;;4962430;28;20505;-84
2022/05/27 11:15:12;;;;;;;9.27;2.10;;;17.70;99.90;;;;;;4963867;28;20446;-83
2022/05/27 11:17:58;;;;;;;8.07;2.20;;;17.70;99.90;;;;;;4979705;28;20108;-82
2022/05/27 11:20:27;;;;;;;10.73;1.90;;;17.10;99.90;;;;;;4980014;28;20070;-83
2022/05/27 11:23:24;;;;;;;8.15;2.28;;;17.10;99.90;;;;;;4979826;28;20456;-83
2022/05/27 11:26:08;;;;;;;8.02;1.80;;;17.20;99.90;;;;;;4964041;28;20129;-83
2022/05/27 11:29:04;;;;;;;9.68;2.08;;;17.20;99.90;;;;;;4982092;28;20100;-83
2022/05/27 11:31:52;;;;;;;9.40;1.98;;;17.40;99.90;;;;;;4981733;28;20057;-82
2022/05/27 11:34:31;;;;;;;8.35;2.05;;;17.20;99.90;;;;;;4980393;28;20049;-83
2022/05/27 11:37:12;;;;;;;10.68;1.95;;;17.00;99.90;;;;;;4980988;28;20042;-83
2022/05/27 11:39:47;;;;;;;14.38;2.25;;;16.80;99.90;;;;;;4983024;28;20046;-83
2022/05/27 11:42:25;;;;;;;10.75;2.08;;;16.80;99.90;;;;;;4997599;28;20046;-83
2022/05/27 11:45:11;;;;;;;7.63;2.03;;;16.90;99.90;;;;;;4998778;28;20050;-83
2022/05/27 11:48:02;;;;;;;10.70;2.47;;;16.80;99.90;;;;;;4985000;28;20057;-83
2022/05/27 11:50:41;;;;;;;9.63;1.88;;;16.80;99.90;;;;;;4980622;28;20096;-83
2022/05/27 11:53:41;;;;;;;11.05;2.30;;;16.80;99.90;;;;;;4981114;28;20054;-83
2022/05/27 11:56:38;;;;;;;12.48;2.40;;;17.20;99.90;;;;;;4980291;28;20046;-83
2022/05/27 11:59:36;;;;;;;13.05;3.05;;;17.20;99.90;;;;;;4980528;28;20058;-83
2022/05/27 12:02:20;;;;;;;11.23;2.25;;;17.80;99.90;;;;;;4963937;28;20046;-83
2022/05/27 12:04:57;;;;;;;7.78;1.70;;;18.10;99.90;;;;;;4981906;28;20490;-82
2022/05/27 12:07:44;;;;;;;8.07;2.25;;;18.20;99.90;;;;;;4982868;28;20058;-82
2022/05/27 12:10:15;;;;;;;7.55;2.05;;;17.70;99.90;;;;;;4982405;28;20054;-83
2022/05/27 12:13:12;;;;;;;10.98;2.00;;;17.30;99.90;;;;;;4981429;28;20050;-82
2022/05/27 12:15:58;;;;;;;8.93;2.10;;;17.20;99.90;;;;;;4965266;28;20058;-83
2022/05/27 12:18:31;;;;;;;11.07;2.22;;;17.10;99.90;;;;;;4969144;28;20046;-83
2022/05/27 12:20:57;;;;;;;9.68;2.38;;;17.30;99.90;;;;;;4980788;28;20038;-82
2022/05/27 12:23:27;;;;;;;11.18;2.53;;;17.40;99.90;;;;;;4997160;28;20034;-84
2022/05/27 12:25:58;;;;;;;11.63;2.25;;;17.30;99.90;;;;;;4998129;28;20053;-84
2022/05/27 12:28:34;;;;;;;12.23;2.47;;;17.70;99.90;;;;;;4966539;28;20046;-83
2022/05/27 12:31:01;;;;;;;9.38;2.25;;;17.80;99.90;;;;;;4997770;28;20070;-84
2022/05/27 12:33:29;;;;;;;12.43;2.40;;;17.50;99.90;;;;;;4981544;28;20035;-84
2022/05/27 12:36:04;;;;;;;12.02;2.58;;;17.40;99.90;;;;;;4965912;28;20085;-82
2022/05/27 12:38:34;;;;;;;11.45;2.45;;;17.30;99.90;;;;;;4980421;28;20046;-82
2022/05/27 12:41:08;;;;;;;11.98;2.45;;;17.30;99.90;;;;;;4981111;28;20046;-83
2022/05/27 12:43:39;;;;;;;8.48;1.70;;;17.30;99.90;;;;;;4981040;28;20086;-83
2022/05/27 12:46:18;;;;;;;8.55;2.10;;;17.40;99.90;;;;;;4983082;28;20101;-83
2022/05/27 12:48:45;;;;;;;8.25;1.75;;;17.50;99.90;;;;;;4982517;28;20125;-83
2022/05/27 12:51:19;;;;;;;9.85;2.25;;;17.50;99.90;;;;;;4981793;28;20389;-82
2022/05/27 12:53:49;;;;;;;11.10;2.10;;;17.20;99.90;;;;;;4982182;28;20470;-83
2022/05/27 13:02:22;;;;;;;12.45;2.42;;;16.90;99.90;;;;;;4981631;28;20050;-84
2022/05/27 13:04:48;;;;;;;7.75;2.10;;;16.70;99.90;;;;;;4965473;28;20050;-83
2022/05/27 13:07:16;;;;;;;8.18;1.98;;;17.00;99.90;;;;;;4981456;28;20375;-84
2022/05/27 13:09:47;;;;;;;7.50;2.17;;;17.20;99.90;;;;;;4965388;28;20042;-83
2022/05/27 13:12:47;;;;;;;11.80;2.33;;;17.00;99.90;;;;;;4980843;28;20133;-84
2022/05/27 13:15:13;;;;;;;6.22;1.92;;;16.90;99.90;;;;;;4980652;28;20046;-84
2022/05/27 13:17:45;;;;;;;13.07;2.38;;;16.80;99.90;;;;;;4965894;28;20482;-84
2022/05/27 13:20:20;;;;;;;9.77;2.25;;;16.90;99.90;;;;;;4965356;28;20154;-83
2022/05/27 13:23:03;;;;;;;7.80;2.05;;;16.80;99.90;;;;;;4981140;28;20096;-83
2022/05/27 13:25:42;;;;;;;10.75;2.38;;;17.00;99.90;;;;;;4980768;28;20129;-84
2022/05/27 13:28:31;;;;;;;10.25;2.38;;;17.10;99.90;;;;;;4980618;28;20054;-84
2022/05/27 13:31:03;;;;;;;10.77;2.28;;;16.90;99.90;;;;;;4964300;28;20136;-84
2022/05/27 13:33:34;;;;;;;9.65;2.05;;;16.90;99.90;;;;;;4980052;28;20490;-83
2022/05/27 13:36:03;;;;;;;9.25;2.28;;;17.10;99.90;;;;;;4980020;28;20042;-84
2022/05/27 13:38:39;;;;;;;9.50;1.80;;;16.90;99.90;;;;;;4979928;28;20046;-84
2022/05/27 13:41:09;;;;;;;9.43;2.03;;;17.10;99.90;;;;;;4963485;28;20046;-84
2022/05/27 13:43:41;;;;;;;10.50;1.92;;;16.80;99.90;;;;;;4964001;28;20076;-84
2022/05/27 13:46:07;;;;;;;8.55;2.38;;;16.90;99.90;;;;;;4963918;28;20046;-84